Impacts METAR Board
IDs:

KLAX - Los Angeles Intl, CA, US

Updated at: 0100 UTC 24 Jun 2018
Potential Impact None Slight Moderate High
Time 23/13Z 23/14Z 23/15Z 23/16Z 23/17Z 23/18Z 23/19Z 23/20Z 23/21Z 23/22Z 23/23Z 24/00Z 24/01Z
Temp63 63 63 64 67 68 69 68 70 70 70 70 69
Dewpt60 60 60 60 59 59 59 59 58 58 57 57 56
Altim29.81 29.82 29.84 29.85 29.86 29.87 29.88 29.88 29.88 29.87 29.86 29.85 29.83
VIS3 3 5 7 10 10 10 10 10 10 10 10 10
CIG8 8 10 12 14 14 17 17 22 24 25 -- --
CoverOVCOVCOVCOVCOVCOVCOVCOVCOVCBKNBKNSCTFEW
FltCatIFRIFRMVFRMVFRMVFRMVFRMVFRMVFRMVFRMVFRMVFRVFRVFR
WXBRBRBR--------------------
WDir1601600140140160140150130140160160170
WSpd7 6 6 8 4 8 10 11 10 8 9 13 8
WGst-- -- -- -- -- -- -- 16 -- 17 -- 21 --
Raw hourly METARs
KLAX 231253Z 16007KT 3SM BR OVC008 17/16 A2981 RMK AO2 SLP091 VIS W 2 1/2 T01720156 $
KLAX 231353Z 16006KT 3SM BR OVC008 17/16 A2982 RMK AO2 SLP096 T01720156 $
KLAX 231453Z VRB06KT 5SM BR OVC010 17/16 A2984 RMK AO2 SLP103 T01720156 53012 $
KLAX 231553Z 14008KT 7SM OVC012 18/16 A2985 RMK AO2 SLP108 T01780156 $
KLAX 231653Z 14004KT 10SM OVC014 19/15 A2986 RMK AO2 SLP109 T01940150 $
KLAX 231753Z 16008KT 10SM OVC014 20/15 A2987 RMK AO2 SLP112 T02000150 10206 20172 51010 $
KLAX 231853Z 14010KT 10SM OVC017 21/15 A2988 RMK AO2 SLP115 T02060150 $
KLAX 231953Z 15011G16KT 10SM OVC017 20/15 A2988 RMK AO2 SLP117 T02000150 $
KLAX 232053Z 13010KT 10SM OVC022 21/14 A2988 RMK AO2 SLP117 T02110144 50005 $
KLAX 232153Z 14008G17KT 10SM FEW021 BKN024 21/14 A2987 RMK AO2 SLP115 T02110144 $
KLAX 232253Z 16009KT 10SM SCT021 BKN025 21/14 A2986 RMK AO2 SLP111 T02110139 $
KLAX 232353Z 16013G21KT 10SM FEW018 SCT022 SCT025 21/14 A2985 RMK AO2 SLP106 T02110139 10217 20200 58010 $
KLAX 240053Z 17008KT 150V210 10SM FEW017 FEW023 21/13 A2983 RMK AO2 SLP100 T02060133 $



Page loaded:  01:19 UTC  |   06:19 PM Pacific  |   07:19 PM Mountain  |   08:19 PM Central  |   09:19 PM Eastern

 

ADVISORIES

FORECASTS

FORECASTS

OBSERVATIONS

USER TOOLS

ABOUT US